Time;durP1;ratioP1;P1;durP2;ratioP2;P2;SDS_P1;SDS_P2;PMS_P1;PMS_P2;Temp;Humidity;BMP_temperature;BMP_pressure;BME280_temperature;BME280_humidity;BME280_pressure;Samples;Min_cycle;Max_cycle;Signal;HPM_P1;HPM_P2
2024/01/05 00:00:59;;;;;;;;;;;231.10;2252.80;;;;;;4977543;28;19913;-76
2024/01/05 00:03:24;;;;;;;;;;;231.00;2252.80;;;;;;4959429;28;19917;-74
2024/01/05 00:05:50;;;;;;;;;;;231.00;2252.80;;;;;;4959495;28;20319;-74
2024/01/05 00:08:16;;;;;;;;;;;231.10;2252.80;;;;;;4977368;28;19930;-74
2024/01/05 00:10:41;;;;;;;;;;;231.00;2252.80;;;;;;4976934;28;20481;-74
2024/01/05 00:13:07;;;;;;;;;;;231.00;2252.80;;;;;;4972496;28;19953;-76
2024/01/05 00:15:32;;;;;;;;;;;230.90;2252.80;;;;;;4976854;28;20336;-76
2024/01/05 00:17:58;;;;;;;;;;;230.60;2252.80;;;;;;4976971;28;19918;-75
2024/01/05 00:20:24;;;;;;;;;;;230.40;2252.80;;;;;;4959491;28;20395;-77
2024/01/05 00:22:49;;;;;;;;;;;205.70;2252.80;;;;;;4976658;28;19913;-76
2024/01/05 00:25:16;;;;;;;;;;;205.60;2252.80;;;;;;4959270;28;19910;-74
2024/01/05 00:27:42;;;;;;;;;;;205.50;2252.80;;;;;;4959251;28;19932;-76
2024/01/05 00:30:08;;;;;;;;;;;205.20;2252.80;;;;;;4959777;28;19906;-75
2024/01/05 00:32:33;;;;;;;;;;;204.80;2252.80;;;;;;4976495;28;19906;-74
2024/01/05 00:34:59;;;;;;;;;;;204.80;2252.80;;;;;;4976934;28;19914;-74
2024/01/05 00:37:24;;;;;;;;;;;205.10;2252.80;;;;;;4958573;28;19910;-74
2024/01/05 00:39:50;;;;;;;;;;;205.20;2252.80;;;;;;4976231;28;20335;-74
2024/01/05 00:42:16;;;;;;;;;;;205.40;2252.80;;;;;;4976363;28;20030;-75
2024/01/05 00:44:41;;;;;;;;;;;205.50;2252.80;;;;;;4958496;28;19932;-75
2024/01/05 00:47:07;;;;;;;;;;;205.50;2252.80;;;;;;4975398;28;19907;-74
2024/01/05 00:49:32;;;;;;;;;;;205.50;2252.80;;;;;;4976014;28;19909;-75
2024/01/05 00:51:58;;;;;;;;;;;205.60;2252.80;;;;;;4976312;28;19913;-75
2024/01/05 00:54:25;;;;;;;;;;;205.50;2252.80;;;;;;4976233;28;19933;-75
2024/01/05 00:56:51;;;;;;;;;;;205.50;2252.80;;;;;;4958312;28;19933;-74
2024/01/05 00:59:19;;;;;;;;;;;205.40;2252.80;;;;;;4975890;28;20392;-74
2024/01/05 01:01:45;;;;;;;;;;;205.40;2252.80;;;;;;4976573;28;19906;-73
2024/01/05 01:04:11;;;;;;;;;;;205.40;2252.80;;;;;;4958088;28;19952;-73
2024/01/05 01:06:36;;;;;;;;;;;205.40;2252.80;;;;;;4975647;28;19913;-75
2024/01/05 01:09:02;;;;;;;;;;;205.50;2252.80;;;;;;4946177;28;19910;-74
2024/01/05 01:11:28;;;;;;;;;;;205.60;2252.80;;;;;;4975568;28;19913;-74
2024/01/05 01:13:53;;;;;;;;;;;205.60;2252.80;;;;;;4976196;28;19910;-74
2024/01/05 01:16:19;;;;;;;;;;;205.60;2252.80;;;;;;4975644;28;19937;-75
2024/01/05 01:18:45;;;;;;;;;;;205.70;2252.80;;;;;;4958560;28;20005;-74
2024/01/05 01:21:10;;;;;;;;;;;205.70;2252.80;;;;;;4975580;28;20275;-74
2024/01/05 01:23:36;;;;;;;;;;;230.40;2252.80;;;;;;4975303;28;19922;-74
2024/01/05 01:26:01;;;;;;;;;;;230.40;2252.80;;;;;;4975289;28;19910;-74
2024/01/05 01:28:28;;;;;;;;;;;230.50;2252.80;;;;;;4979823;28;19910;-75
2024/01/05 01:30:53;;;;;;;;;;;230.50;2252.80;;;;;;4976035;28;19914;-75
2024/01/05 01:33:19;;;;;;;;;;;230.60;2252.80;;;;;;4975406;28;19906;-75
2024/01/05 01:35:44;;;;;;;;;;;230.50;2252.80;;;;;;4975605;28;20364;-75
2024/01/05 01:38:10;;;;;;;;;;;230.50;2252.80;;;;;;4975506;28;19914;-75
2024/01/05 01:40:36;;;;;;;;;;;205.70;2252.80;;;;;;4975336;28;19906;-75
2024/01/05 01:43:03;;;;;;;;;;;205.50;2252.80;;;;;;4975243;28;19907;-75
2024/01/05 01:45:30;;;;;;;;;;;205.30;2252.80;;;;;;4975453;28;19913;-74
2024/01/05 01:47:55;;;;;;;;;;;205.20;2252.80;;;;;;4975244;28;20348;-75
2024/01/05 01:50:24;;;;;;;;;;;205.00;2252.80;;;;;;4975261;28;19914;-75
2024/01/05 01:52:50;;;;;;;;;;;205.10;2252.80;;;;;;4975228;28;19953;-75
2024/01/05 01:55:16;;;;;;;;;;;205.20;2252.80;;;;;;4975149;28;19918;-76
2024/01/05 01:57:42;;;;;;;;;;;205.10;2252.80;;;;;;4957665;28;19914;-76
2024/01/05 02:00:09;;;;;;;;;;;204.90;2252.80;;;;;;4956524;28;19992;-74
2024/01/05 02:02:34;;;;;;;;;;;180.10;2252.80;;;;;;4975020;28;19957;-74
2024/01/05 02:05:00;;;;;;;;;;;180.00;2252.80;;;;;;4974702;28;20352;-74
2024/01/05 02:07:26;;;;;;;;;;;179.80;2252.80;;;;;;4975358;28;19923;-75
2024/01/05 02:09:51;;;;;;;;;;;179.70;2252.80;;;;;;4957383;28;19906;-73
2024/01/05 02:12:17;;;;;;;;;;;179.90;2252.80;;;;;;4957335;28;19906;-75
2024/01/05 02:14:43;;;;;;;;;;;180.10;2252.80;;;;;;4963158;28;19914;-74
2024/01/05 02:20:20;;;;;;;;;;;179.60;2252.80;;;;;;5188987;23;19922;-75
2024/01/05 02:22:52;;;;;;;;;;;179.50;2252.80;;;;;;4951482;29;19914;-76
2024/01/05 02:25:17;;;;;;;;;;;179.30;2252.80;;;;;;4952903;29;19910;-75
2024/01/05 02:27:43;;;;;;;;;;;179.30;2252.80;;;;;;4954442;29;19920;-74
2024/01/05 02:30:09;;;;;;;;;;;179.50;2252.80;;;;;;4954866;29;19937;-75
2024/01/05 02:32:34;;;;;;;;;;;179.40;2252.80;;;;;;4954848;29;20325;-77
2024/01/05 02:35:00;;;;;;;;;;;179.50;2252.80;;;;;;4953137;29;19918;-76
2024/01/05 02:37:25;;;;;;;;;;;154.50;2252.80;;;;;;4953967;29;19910;-77
2024/01/05 02:39:51;;;;;;;;;;;179.30;2252.80;;;;;;4937691;29;20268;-76
2024/01/05 02:42:17;;;;;;;;;;;154.50;2252.80;;;;;;4953020;29;20395;-76
2024/01/05 02:44:42;;;;;;;;;;;179.40;2252.80;;;;;;4935372;29;19910;-77
2024/01/05 02:47:08;;;;;;;;;;;179.20;2252.80;;;;;;4954216;29;19906;-77
2024/01/05 02:49:33;;;;;;;;;;;154.50;2252.80;;;;;;4937075;29;19941;-76
2024/01/05 02:51:59;;;;;;;;;;;179.30;2252.80;;;;;;4936920;29;19921;-76
2024/01/05 02:54:25;;;;;;;;;;;179.30;2252.80;;;;;;4938881;29;19937;-76
2024/01/05 02:56:50;;;;;;;;;;;179.50;2252.80;;;;;;4944977;29;20038;-77
2024/01/05 02:59:16;;;;;;;;;;;179.70;2252.80;;;;;;4954060;29;19907;-76
2024/01/05 03:01:41;;;;;;;;;;;180.00;2252.80;;;;;;4954111;29;19910;-76
2024/01/05 03:04:07;;;;;;;;;;;204.80;2252.80;;;;;;4954219;29;20242;-76
2024/01/05 03:06:33;;;;;;;;;;;205.00;2252.80;;;;;;4937358;29;19910;-78
2024/01/05 03:08:59;;;;;;;;;;;205.00;2252.80;;;;;;4937340;29;19906;-78
2024/01/05 03:11:25;;;;;;;;;;;205.10;2252.80;;;;;;4936403;29;19913;-78
2024/01/05 03:13:50;;;;;;;;;;;205.20;2252.80;;;;;;4937554;29;20267;-76
2024/01/05 03:16:16;;;;;;;;;;;205.20;2252.80;;;;;;4938843;29;19953;-78
2024/01/05 03:18:42;;;;;;;;;;;205.30;2252.80;;;;;;4953833;29;20411;-77
2024/01/05 03:21:07;;;;;;;;;;;205.30;2252.80;;;;;;4961801;28;20335;-77
2024/01/05 03:23:34;;;;;;;;;;;205.10;2252.80;;;;;;4961688;28;19910;-76
2024/01/05 03:26:00;;;;;;;;;;;205.00;2252.80;;;;;;4956141;28;19906;-76
2024/01/05 03:28:26;;;;;;;;;;;205.00;2252.80;;;;;;4973160;28;19913;-76
2024/01/05 03:30:52;;;;;;;;;;;204.90;2252.80;;;;;;4955744;28;19910;-78
2024/01/05 03:33:19;;;;;;;;;;;204.90;2252.80;;;;;;4973536;28;19913;-77
2024/01/05 03:35:45;;;;;;;;;;;205.30;2252.80;;;;;;4955309;28;19926;-76
2024/01/05 03:38:10;;;;;;;;;;;205.00;2252.80;;;;;;4973836;28;20001;-78
2024/01/05 03:40:36;;;;;;;;;;;205.20;2252.80;;;;;;4956223;28;19906;-79
2024/01/05 03:43:01;;;;;;;;;;;205.40;2252.80;;;;;;4957089;28;19942;-78
2024/01/05 03:45:27;;;;;;;;;;;205.40;2252.80;;;;;;4963176;28;20467;-77
2024/01/05 03:47:52;;;;;;;;;;;205.10;2252.80;;;;;;4966134;28;19914;-78
2024/01/05 03:50:19;;;;;;;;;;;205.60;2252.80;;;;;;4956231;28;19912;-78
2024/01/05 03:52:44;;;;;;;;;;;205.10;2252.80;;;;;;4956032;28;19910;-78
2024/01/05 03:55:10;;;;;;;;;;;205.20;2252.80;;;;;;4972252;28;19964;-78
2024/01/05 03:57:36;;;;;;;;;;;205.20;2252.80;;;;;;4956156;28;19923;-78
2024/01/05 04:00:01;;;;;;;;;;;205.20;2252.80;;;;;;4956296;28;19960;-78
2024/01/05 04:02:27;;;;;;;;;;;205.10;2252.80;;;;;;4972205;28;19913;-79
2024/01/05 04:04:52;;;;;;;;;;;204.90;2252.80;;;;;;4956226;28;20364;-79
2024/01/05 04:07:18;;;;;;;;;;;204.80;2252.80;;;;;;4956096;28;19906;-78
2024/01/05 04:09:44;;;;;;;;;;;204.80;2252.80;;;;;;4972214;28;19941;-78
2024/01/05 04:12:09;;;;;;;;;;;180.10;2252.80;;;;;;4956218;28;19912;-78
2024/01/05 04:14:35;;;;;;;;;;;179.90;2252.80;;;;;;4973381;28;19914;-78
2024/01/05 04:17:01;;;;;;;;;;;179.80;2252.80;;;;;;4973636;28;19906;-78
2024/01/05 04:19:28;;;;;;;;;;;179.80;2252.80;;;;;;4956096;28;19921;-78
2024/01/05 04:21:54;;;;;;;;;;;179.80;2252.80;;;;;;4941892;28;19922;-78
2024/01/05 04:24:20;;;;;;;;;;;179.60;2252.80;;;;;;4957144;28;20268;-78
2024/01/05 04:26:46;;;;;;;;;;;179.50;2252.80;;;;;;4940757;29;19906;-79
2024/01/05 04:29:12;;;;;;;;;;;179.50;2252.80;;;;;;4939939;29;19913;-78
2024/01/05 04:31:37;;;;;;;;;;;179.60;2252.80;;;;;;4957583;29;20272;-78
2024/01/05 04:34:03;;;;;;;;;;;179.70;2252.80;;;;;;4956558;29;20017;-77
2024/01/05 04:36:29;;;;;;;;;;;179.60;2252.80;;;;;;4955452;28;20379;-76
2024/01/05 04:38:54;;;;;;;;;;;179.50;2252.80;;;;;;4939772;29;20271;-76
2024/01/05 04:41:21;;;;;;;;;;;179.20;2252.80;;;;;;4956987;29;19914;-76
2024/01/05 04:43:46;;;;;;;;;;;179.20;2252.80;;;;;;4939653;29;19914;-77
2024/01/05 04:46:12;;;;;;;;;;;154.50;2252.80;;;;;;4956774;29;19965;-76
2024/01/05 04:48:37;;;;;;;;;;;154.20;2252.80;;;;;;4956734;29;19954;-77
2024/01/05 04:51:03;;;;;;;;;;;154.30;2252.80;;;;;;4937951;29;19922;-77
2024/01/05 04:53:29;;;;;;;;;;;154.30;2252.80;;;;;;4939778;29;19907;-76
2024/01/05 04:55:54;;;;;;;;;;;154.50;2252.80;;;;;;4958405;28;19914;-76
2024/01/05 04:58:20;;;;;;;;;;;179.20;2252.80;;;;;;4964505;28;20023;-77
2024/01/05 05:00:46;;;;;;;;;;;179.20;2252.80;;;;;;4939002;29;20198;-77
2024/01/05 05:03:15;;;;;;;;;;;179.30;2252.80;;;;;;4939418;29;20308;-76
2024/01/05 05:05:41;;;;;;;;;;;179.30;2252.80;;;;;;4956213;29;19907;-77
2024/01/05 05:08:10;;;;;;;;;;;179.40;2252.80;;;;;;4939336;29;19957;-78
2024/01/05 05:10:37;;;;;;;;;;;179.30;2252.80;;;;;;4955696;29;19917;-77
2024/01/05 05:13:03;;;;;;;;;;;179.40;2252.80;;;;;;4939231;29;19915;-75
2024/01/05 05:15:28;;;;;;;;;;;179.30;2252.80;;;;;;4956102;28;19921;-76
2024/01/05 05:17:54;;;;;;;;;;;179.30;2252.80;;;;;;4939076;29;19949;-77
2024/01/05 05:20:20;;;;;;;;;;;154.50;2252.80;;;;;;4939713;28;19910;-77
2024/01/05 05:22:45;;;;;;;;;;;179.20;2252.80;;;;;;4964123;28;19906;-76
2024/01/05 05:25:11;;;;;;;;;;;154.50;2252.80;;;;;;4956086;28;20373;-78
2024/01/05 05:27:36;;;;;;;;;;;154.30;2252.80;;;;;;4938797;29;20005;-77
2024/01/05 05:30:04;;;;;;;;;;;154.00;2252.80;;;;;;4938974;29;19911;-77
2024/01/05 05:32:29;;;;;;;;;;;153.80;2252.80;;;;;;4955728;28;19906;-78
2024/01/05 05:34:55;;;;;;;;;;;153.90;2252.80;;;;;;4955786;28;19937;-76
2024/01/05 05:37:21;;;;;;;;;;;153.80;2252.80;;;;;;4938472;29;19914;-77
2024/01/05 05:39:46;;;;;;;;;;;153.60;2252.80;;;;;;4938924;29;20681;-77
2024/01/05 05:42:12;;;;;;;;;;;153.60;2252.80;;;;;;4932451;29;19917;-76
2024/01/05 05:44:38;;;;;;;;;;;153.60;2252.80;;;;;;4936733;28;20305;-77
2024/01/05 05:47:04;;;;;;;;;;;128.90;2252.80;;;;;;4939163;28;19914;-77
2024/01/05 05:49:29;;;;;;;;;;;153.70;2252.80;;;;;;4939147;29;19907;-78
2024/01/05 05:51:55;;;;;;;;;;;128.90;2252.80;;;;;;4938801;29;19921;-78
2024/01/05 05:54:20;;;;;;;;;;;128.90;2252.80;;;;;;4956313;29;19946;-76
2024/01/05 05:56:46;;;;;;;;;;;128.90;2252.80;;;;;;4956514;28;19906;-78
2024/01/05 05:59:12;;;;;;;;;;;128.80;2252.80;;;;;;4939006;28;19976;-76
2024/01/05 06:01:37;;;;;;;;;;;128.80;2252.80;;;;;;4952712;28;20006;-76
2024/01/05 06:04:05;;;;;;;;;;;128.90;2252.80;;;;;;4953103;29;19907;-78
2024/01/05 06:06:31;;;;;;;;;;;153.70;2252.80;;;;;;4938722;29;19961;-81
2024/01/05 06:08:56;;;;;;;;;;;153.60;2252.80;;;;;;4956255;29;20344;-78
2024/01/05 06:11:26;;;;;;;;;;;128.90;2252.80;;;;;;4938455;29;19916;-75
2024/01/05 06:13:52;;;;;;;;;;;153.60;2252.80;;;;;;4938777;29;19906;-77
2024/01/05 06:16:18;;;;;;;;;;;128.90;2252.80;;;;;;4938433;29;19964;-74
2024/01/05 06:18:43;;;;;;;;;;;128.90;2252.80;;;;;;4955484;28;19911;-75
2024/01/05 06:21:09;;;;;;;;;;;153.70;2252.80;;;;;;4937984;29;19922;-76
2024/01/05 06:23:34;;;;;;;;;;;153.70;2252.80;;;;;;4925911;29;19939;-76
2024/01/05 06:26:00;;;;;;;;;;;153.90;2252.80;;;;;;4955833;28;20250;-76
2024/01/05 06:28:26;;;;;;;;;;;154.00;2252.80;;;;;;4938110;29;20327;-76
2024/01/05 06:30:52;;;;;;;;;;;154.10;2252.80;;;;;;4955215;29;20041;-75
2024/01/05 06:33:17;;;;;;;;;;;154.10;2252.80;;;;;;4955092;28;19921;-75
2024/01/05 06:35:43;;;;;;;;;;;154.10;2252.80;;;;;;4955228;29;20001;-75
2024/01/05 06:38:09;;;;;;;;;;;154.00;2252.80;;;;;;4938404;29;19907;-76
2024/01/05 06:40:34;;;;;;;;;;;153.90;2252.80;;;;;;4955322;29;20311;-76
2024/01/05 06:43:00;;;;;;;;;;;153.90;2252.80;;;;;;4955383;29;19906;-74
2024/01/05 06:45:25;;;;;;;;;;;154.10;2252.80;;;;;;4954789;28;19906;-75
2024/01/05 06:47:51;;;;;;;;;;;154.00;2252.80;;;;;;4955609;28;19906;-76
2024/01/05 06:50:17;;;;;;;;;;;153.80;2252.80;;;;;;4955133;29;19961;-75
2024/01/05 06:52:43;;;;;;;;;;;153.70;2252.80;;;;;;4955128;28;19917;-75
2024/01/05 06:55:09;;;;;;;;;;;153.60;2252.80;;;;;;4937781;29;20387;-75
2024/01/05 06:57:35;;;;;;;;;;;153.70;2252.80;;;;;;4937792;29;20383;-75
2024/01/05 07:00:09;;;;;;;;;;;153.80;2252.80;;;;;;4937937;29;20319;-75
2024/01/05 07:02:35;;;;;;;;;;;153.80;2252.80;;;;;;4937310;28;19945;-75
2024/01/05 07:05:01;;;;;;;;;;;154.00;2252.80;;;;;;4957355;28;19913;-74
2024/01/05 07:07:27;;;;;;;;;;;154.00;2252.80;;;;;;4955391;28;19906;-76
2024/01/05 07:09:52;;;;;;;;;;;154.10;2252.80;;;;;;4955255;29;20415;-76
2024/01/05 07:12:19;;;;;;;;;;;154.10;2252.80;;;;;;4955196;29;20332;-76
2024/01/05 07:14:46;;;;;;;;;;;154.10;2252.80;;;;;;4937480;29;20399;-74
2024/01/05 07:17:11;;;;;;;;;;;154.00;2252.80;;;;;;4954609;29;19906;-74
2024/01/05 07:19:38;;;;;;;;;;;154.00;2252.80;;;;;;4954399;29;19911;-75
2024/01/05 07:22:03;;;;;;;;;;;154.00;2252.80;;;;;;4969512;28;19925;-75
2024/01/05 07:24:29;;;;;;;;;;;154.00;2252.80;;;;;;4970019;28;19907;-75
2024/01/05 07:26:55;;;;;;;;;;;154.00;2252.80;;;;;;4974058;28;20363;-74
2024/01/05 07:29:20;;;;;;;;;;;154.00;2252.80;;;;;;4973991;28;19996;-74
2024/01/05 07:31:46;;;;;;;;;;;154.10;2252.80;;;;;;4956471;28;19929;-73
2024/01/05 07:34:11;;;;;;;;;;;154.10;2252.80;;;;;;4976168;28;19910;-73
2024/01/05 07:36:41;;;;;;;;;;;154.10;2252.80;;;;;;4974053;28;20344;-75
2024/01/05 07:39:10;;;;;;;;;;;154.30;2252.80;;;;;;4967801;28;19906;-76
2024/01/05 07:41:36;;;;;;;;;;;154.40;2252.80;;;;;;4973787;28;20371;-73
2024/01/05 07:44:02;;;;;;;;;;;179.20;2252.80;;;;;;4973028;28;19910;-75
2024/01/05 07:46:27;;;;;;;;;;;179.30;2252.80;;;;;;4967017;28;19996;-76
2024/01/05 07:48:54;;;;;;;;;;;179.40;2252.80;;;;;;4956391;28;19910;-75
2024/01/05 07:51:20;;;;;;;;;;;179.60;2252.80;;;;;;4973588;28;19914;-76
2024/01/05 07:53:48;;;;;;;;;;;179.60;2252.80;;;;;;4973651;28;19957;-76
2024/01/05 07:56:14;;;;;;;;;;;179.80;2252.80;;;;;;4973644;28;20017;-73
2024/01/05 07:58:39;;;;;;;;;;;179.90;2252.80;;;;;;4961059;28;19998;-76
2024/01/05 08:01:05;;;;;;;;;;;180.10;2252.80;;;;;;4977718;28;19914;-74
2024/01/05 08:03:31;;;;;;;;;;;180.00;2252.80;;;;;;4976717;28;19917;-75
2024/01/05 08:05:57;;;;;;;;;;;180.00;2252.80;;;;;;4977458;28;20471;-77
2024/01/05 08:08:23;;;;;;;;;;;180.10;2252.80;;;;;;4977741;28;20000;-75
2024/01/05 08:10:48;;;;;;;;;;;204.80;2252.80;;;;;;4977333;28;19953;-76
2024/01/05 08:13:14;;;;;;;;;;;204.90;2252.80;;;;;;4973709;28;19913;-75
2024/01/05 08:15:39;;;;;;;;;;;204.90;2252.80;;;;;;4959665;28;19921;-76
2024/01/05 08:18:05;;;;;;;;;;;205.00;2252.80;;;;;;4959784;28;19913;-75
2024/01/05 08:20:31;;;;;;;;;;;205.00;2252.80;;;;;;4976438;28;19922;-74
2024/01/05 08:22:56;;;;;;;;;;;205.00;2252.80;;;;;;4959422;28;19914;-78
2024/01/05 08:25:22;;;;;;;;;;;205.10;2252.80;;;;;;4959885;28;19961;-76
2024/01/05 08:27:48;;;;;;;;;;;205.30;2252.80;;;;;;4976763;28;19985;-76
2024/01/05 08:30:13;;;;;;;;;;;205.40;2252.80;;;;;;4956491;29;19916;-75
2024/01/05 08:32:40;;;;;;;;;;;205.50;2252.80;;;;;;4959274;28;19906;-76
2024/01/05 08:35:06;;;;;;;;;;;205.60;2252.80;;;;;;4958991;28;19914;-76
2024/01/05 08:37:32;;;;;;;;;;;205.70;2252.80;;;;;;4974818;28;19910;-79
2024/01/05 08:39:57;;;;;;;;;;;205.70;2252.80;;;;;;4959185;28;19912;-79
2024/01/05 08:42:23;;;;;;;;;;;205.70;2252.80;;;;;;4959780;28;19910;-79
2024/01/05 08:44:50;;;;;;;;;;;230.40;2252.80;;;;;;4976686;28;19906;-80
2024/01/05 08:47:19;;;;;;;;;;;230.50;2252.80;;;;;;4959320;28;19906;-77
2024/01/05 08:49:44;;;;;;;;;;;230.60;2252.80;;;;;;4975637;28;19906;-77
2024/01/05 08:52:10;;;;;;;;;;;230.80;2252.80;;;;;;4958724;28;20307;-75
2024/01/05 08:54:38;;;;;;;;;;;230.90;2252.80;;;;;;4976248;28;19914;-77
2024/01/05 08:57:06;;;;;;;;;;;;;;;;;;4968023;28;19925;-75
2024/01/05 08:59:33;;;;;;;;;;;231.20;2252.80;;;;;;4958532;28;20342;-75
2024/01/05 09:01:58;;;;;;;;;;;231.20;2252.80;;;;;;4976771;28;19910;-76
2024/01/05 09:04:24;;;;;;;;;;;256.00;2252.80;;;;;;4959051;28;20001;-77
2024/01/05 09:06:50;;;;;;;;;;;256.70;2252.80;;;;;;4976269;28;19910;-76
2024/01/05 09:09:16;;;;;;;;;;;256.30;2252.80;;;;;;4957469;28;19925;-77
2024/01/05 09:11:42;;;;;;;;;;;256.40;2252.80;;;;;;4958423;28;20265;-78
2024/01/05 09:14:07;;;;;;;;;;;256.50;2252.80;;;;;;4976297;28;19948;-77
2024/01/05 09:16:33;;;;;;;;;;;256.60;2252.80;;;;;;4965525;28;20005;-78
2024/01/05 09:18:59;;;;;;;;;;;256.70;2252.80;;;;;;4958451;28;20352;-74
2024/01/05 09:21:24;;;;;;;;;;;256.70;2252.80;;;;;;4975260;28;19926;-76
2024/01/05 09:23:50;;;;;;;;;;;256.80;2252.80;;;;;;4958321;28;19906;-77
2024/01/05 09:26:16;;;;;;;;;;;256.80;2252.80;;;;;;4958719;28;20352;-77
2024/01/05 09:28:43;;;;;;;;;;;256.60;2252.80;;;;;;4958358;28;19949;-76
2024/01/05 09:31:09;;;;;;;;;;;256.90;2252.80;;;;;;4958364;28;19929;-77
2024/01/05 09:33:36;;;;;;;;;;;256.90;2252.80;;;;;;4958122;28;19973;-80
2024/01/05 09:36:04;;;;;;;;;;;281.60;2278.40;;;;;;4975611;28;19914;-78
2024/01/05 09:38:30;;;;;;;;;;;281.80;2278.40;;;;;;4957847;28;19906;-78
2024/01/05 09:40:56;;;;;;;;;;;282.00;2278.40;;;;;;4981158;28;20257;-76
2024/01/05 09:43:25;;;;;;;;;;;307.30;2304.00;;;;;;4957923;28;19929;-76
2024/01/05 09:45:51;;;;;;;;;;;282.10;2278.40;;;;;;4957022;28;19961;-76
2024/01/05 09:48:24;;;;;;;;;;;282.20;2278.40;;;;;;4959097;28;20340;-76
2024/01/05 09:50:50;;;;;;;;;;;282.30;2278.40;;;;;;4973532;28;20331;-77
2024/01/05 09:53:17;;;;;;;;;;;282.30;2278.40;;;;;;4963379;28;19936;-79
2024/01/05 09:55:47;;;;;;;;;;;282.50;2278.40;;;;;;4957712;28;19972;-80
2024/01/05 09:58:16;;;;;;;;;;;307.30;2304.00;;;;;;4957900;28;20000;-75
2024/01/05 10:00:43;;;;;;;;;;;307.20;2304.00;;;;;;4971529;28;19906;-77
2024/01/05 10:03:09;;;;;;;;;;;307.50;2304.00;;;;;;4975062;28;19932;-73
2024/01/05 10:05:35;;;;;;;;;;;307.40;2304.00;;;;;;4956455;28;20356;-79
2024/01/05 10:08:01;;;;;;;;;;;307.50;2304.00;;;;;;4974628;28;20008;-74
2024/01/05 10:10:47;;;;;;;;;;;307.80;2304.00;;;;;;4974951;28;19952;-75
2024/01/05 10:13:13;;;;;;;;;;;308.00;2304.00;;;;;;4957388;28;20363;-75
2024/01/05 10:15:55;;;;;;;;;;;308.10;2304.00;;;;;;4958559;28;19914;-73
2024/01/05 10:18:21;;;;;;;;;;;332.90;2329.60;;;;;;4975884;28;19937;-74
2024/01/05 10:20:46;;;;;;;;;;;332.90;2329.60;;;;;;4974696;28;19922;-74
2024/01/05 10:23:13;;;;;;;;;;;333.00;2329.60;;;;;;4974369;28;19906;-76
2024/01/05 10:25:39;;;;;;;;;;;308.10;2304.00;;;;;;4966027;28;20009;-74
2024/01/05 10:28:23;;;;;;;;;;;333.10;2329.60;;;;;;4973838;28;19993;-80
2024/01/05 10:30:49;;;;;;;;;;;307.80;2304.00;;;;;;4972357;28;19913;-74
2024/01/05 10:33:16;;;;;;;;;;;308.00;2304.00;;;;;;4969955;28;19906;-72
2024/01/05 10:35:45;;;;;;;;;;;333.00;2329.60;;;;;;4965774;28;19921;-74
2024/01/05 10:38:14;;;;;;;;;;;332.90;2329.60;;;;;;4973865;28;19906;-73
2024/01/05 10:40:40;;;;;;;;;;;332.80;2329.60;;;;;;4973930;28;19949;-73
2024/01/05 10:43:09;;;;;;;;;;;333.10;2329.60;;;;;;4973669;28;19937;-74
2024/01/05 10:45:36;;;;;;;;;;;308.10;2304.00;;;;;;4973921;28;19960;-73
2024/01/05 10:48:04;;;;;;;;;;;308.10;2304.00;;;;;;4973175;28;19906;-74
2024/01/05 10:50:30;;;;;;;;;;;333.00;2329.60;;;;;;4973933;28;19914;-74
2024/01/05 10:52:57;;;;;;;;;;;332.90;2329.60;;;;;;4973688;28;19910;-73
2024/01/05 10:55:22;;;;;;;;;;;332.90;2329.60;;;;;;4973761;28;19922;-73
2024/01/05 10:57:48;;;;;;;;;;;308.10;2304.00;;;;;;4973625;28;19906;-73
2024/01/05 11:00:14;;;;;;;;;;;332.80;2329.60;;;;;;4973656;28;19910;-73
2024/01/05 11:02:41;;;;;;;;;;;307.90;2304.00;;;;;;4959662;28;20429;-74
2024/01/05 11:05:08;;;;;;;;;;;307.90;2304.00;;;;;;4973754;28;19906;-74
2024/01/05 11:07:34;;;;;;;;;;;308.10;2304.00;;;;;;4965365;28;19910;-76
2024/01/05 11:10:00;;;;;;;;;;;308.10;2304.00;;;;;;4971131;28;20352;-71
2024/01/05 11:12:41;;;;;;;;;;;308.00;2304.00;;;;;;4973396;28;19956;-72
2024/01/05 11:15:13;;;;;;;;;;;307.90;2304.00;;;;;;4947774;29;20028;-74
2024/01/05 11:17:48;;;;;;;;;;;307.90;2304.00;;;;;;4971703;28;19910;-72
2024/01/05 11:20:19;;;;;;;;;;;308.00;2304.00;;;;;;4973187;28;19969;-78
2024/01/05 11:22:47;;;;;;;;;;;308.10;2304.00;;;;;;4972962;28;19914;-74
2024/01/05 11:25:15;;;;;;;;;;;332.90;2329.60;;;;;;4973187;28;19933;-75
2024/01/05 11:27:45;;;;;;;;;;;332.80;2329.60;;;;;;4955794;28;19910;-73
2024/01/05 11:30:11;;;;;;;;;;;332.90;2329.60;;;;;;4973879;28;19913;-78
2024/01/05 11:32:45;;;;;;;;;;;332.80;2329.60;;;;;;4976042;28;20286;-74
2024/01/05 11:35:16;;;;;;;;;;;332.80;2329.60;;;;;;4977453;28;19949;-78
2024/01/05 11:37:43;;;;;;;;;;;308.10;2304.00;;;;;;4976650;28;19936;-74
2024/01/05 11:40:26;;;;;;;;;;;308.00;2304.00;;;;;;4977171;28;19906;-72
2024/01/05 11:42:52;;;;;;;;;;;308.10;2304.00;;;;;;4977448;28;19984;-73
2024/01/05 11:45:56;;;;;;;;;;;308.00;2304.00;;;;;;4977121;28;19912;-72
2024/01/05 11:48:34;;;;;;;;;;;307.90;2304.00;;;;;;4897988;29;20346;-77
2024/01/05 11:51:02;;;;;;;;;;;307.80;2304.00;;;;;;4882015;29;20296;-74
2024/01/05 11:53:28;;;;;;;;;;;307.80;2304.00;;;;;;4898170;29;19911;-74
2024/01/05 11:55:56;;;;;;;;;;;307.80;2304.00;;;;;;4898520;29;20488;-72
2024/01/05 11:58:32;;;;;;;;;;;307.80;2304.00;;;;;;4898775;29;20357;-74
2024/01/05 12:00:58;;;;;;;;;;;307.80;2304.00;;;;;;4898401;29;20437;-74
2024/01/05 12:03:25;;;;;;;;;;;307.90;2304.00;;;;;;4898789;29;19911;-74
2024/01/05 12:05:52;;;;;;;;;;;307.90;2304.00;;;;;;4898377;29;19908;-73
2024/01/05 12:08:18;;;;;;;;;;;307.80;2304.00;;;;;;4898142;29;19912;-73
2024/01/05 12:10:43;;;;;;;;;;;307.90;2304.00;;;;;;4897939;29;19995;-73
2024/01/05 12:13:09;;;;;;;;;;;307.90;2304.00;;;;;;4882158;29;19939;-73
2024/01/05 12:15:35;;;;;;;;;;;308.00;2304.00;;;;;;4882634;29;19922;-75
2024/01/05 12:18:01;;;;;;;;;;;308.00;2304.00;;;;;;4901269;28;19960;-74
2024/01/05 12:20:27;;;;;;;;;;;308.00;2304.00;;;;;;4976481;28;19925;-74
2024/01/05 12:22:53;;;;;;;;;;;308.00;2304.00;;;;;;4976715;28;19910;-74
2024/01/05 12:25:18;;;;;;;;;;;308.00;2304.00;;;;;;4958251;28;20431;-74
2024/01/05 12:27:44;;;;;;;;;;;308.00;2304.00;;;;;;4976292;28;19910;-72
2024/01/05 12:30:10;;;;;;;;;;;307.90;2304.00;;;;;;4976450;28;19952;-75
2024/01/05 12:32:36;;;;;;;;;;;307.90;2304.00;;;;;;4976225;28;20005;-74
2024/01/05 12:35:03;;;;;;;;;;;308.00;2304.00;;;;;;4960409;28;20004;-74
2024/01/05 12:37:29;;;;;;;;;;;307.90;2304.00;;;;;;4976510;28;19933;-73
2024/01/05 12:39:54;;;;;;;;;;;307.90;2304.00;;;;;;4976596;28;19937;-74
2024/01/05 12:42:20;;;;;;;;;;;307.90;2304.00;;;;;;4976908;28;19906;-80
2024/01/05 12:44:47;;;;;;;;;;;307.80;2304.00;;;;;;4975695;28;19922;-73
2024/01/05 12:47:26;;;;;;;;;;;307.80;2304.00;;;;;;4976330;28;19906;-72
2024/01/05 12:49:52;;;;;;;;;;;307.80;2304.00;;;;;;4976597;28;19906;-73
2024/01/05 12:52:17;;;;;;;;;;;307.90;2304.00;;;;;;4976133;28;20375;-76
2024/01/05 12:54:43;;;;;;;;;;;307.90;2304.00;;;;;;4976314;28;19914;-75
2024/01/05 12:57:09;;;;;;;;;;;308.00;2304.00;;;;;;4973841;28;19906;-75
2024/01/05 12:59:37;;;;;;;;;;;308.10;2304.00;;;;;;4957725;28;19937;-76
2024/01/05 13:02:05;;;;;;;;;;;308.00;2304.00;;;;;;4951181;28;19977;-78
2024/01/05 13:04:34;;;;;;;;;;;308.00;2304.00;;;;;;4958675;28;19913;-76
2024/01/05 13:07:00;;;;;;;;;;;307.90;2304.00;;;;;;4949340;28;19906;-76
2024/01/05 13:09:25;;;;;;;;;;;307.90;2304.00;;;;;;4976254;28;19913;-76
2024/01/05 13:11:54;;;;;;;;;;;307.80;2304.00;;;;;;4958240;28;19910;-77
2024/01/05 13:14:20;;;;;;;;;;;307.80;2304.00;;;;;;4958018;28;19906;-75
2024/01/05 13:16:46;;;;;;;;;;;307.80;2304.00;;;;;;4975606;28;19914;-75
2024/01/05 13:19:12;;;;;;;;;;;307.80;2304.00;;;;;;4980634;28;20008;-73
2024/01/05 13:21:38;;;;;;;;;;;307.80;2304.00;;;;;;4975824;28;20400;-73
2024/01/05 13:24:03;;;;;;;;;;;307.80;2304.00;;;;;;4978462;28;20034;-71
2024/01/05 13:26:29;;;;;;;;;;;307.70;2304.00;;;;;;4975837;28;19914;-77
2024/01/05 13:28:55;;;;;;;;;;;308.00;2304.00;;;;;;4974263;28;20265;-75
2024/01/05 13:31:21;;;;;;;;;;;307.70;2304.00;;;;;;4975936;28;20015;-76
2024/01/05 13:33:46;;;;;;;;;;;307.70;2304.00;;;;;;4956925;28;20395;-77
2024/01/05 13:36:12;;;;;;;;;;;307.60;2304.00;;;;;;4958298;28;20009;-78
2024/01/05 13:38:37;;;;;;;;;;;307.50;2304.00;;;;;;4958500;28;19913;-80
2024/01/05 13:41:04;;;;;;;;;;;307.60;2304.00;;;;;;4958340;28;19914;-81